createdAt,value
2023-12-24T00:01:49.118Z,2.60
2023-12-24T00:06:50.727Z,3.40
2023-12-24T00:11:53.451Z,2.25
2023-12-24T00:16:55.097Z,2.42
2023-12-24T00:21:56.739Z,1.10
2023-12-24T00:26:58.392Z,2.55
2023-12-24T00:32:00.043Z,2.95
2023-12-24T00:37:01.725Z,2.22
2023-12-24T00:42:03.476Z,2.70
2023-12-24T00:47:05.180Z,2.15
2023-12-24T00:52:06.823Z,2.50
2023-12-24T00:57:08.441Z,2.22
2023-12-24T01:02:10.186Z,1.80
2023-12-24T01:07:11.895Z,4.90
2023-12-24T01:12:13.543Z,3.15
2023-12-24T01:17:16.234Z,1.45
2023-12-24T01:22:17.894Z,1.95
2023-12-24T01:27:19.557Z,2.00
2023-12-24T01:32:21.220Z,1.30
2023-12-24T01:37:22.851Z,3.30
2023-12-24T01:42:24.851Z,1.17
2023-12-24T01:47:27.047Z,1.17
2023-12-24T01:52:28.787Z,1.52
2023-12-24T01:57:32.319Z,1.55
2023-12-24T02:02:34.971Z,0.95
2023-12-24T02:07:37.492Z,2.00
2023-12-24T02:12:39.883Z,1.33
2023-12-24T02:17:43.410Z,1.77
2023-12-24T02:22:45.040Z,1.10
2023-12-24T02:28:05.354Z,1.60
2023-12-24T02:33:09.964Z,1.45
2023-12-24T02:38:12.017Z,1.55
2023-12-24T02:43:13.636Z,1.83
2023-12-24T02:48:15.475Z,1.45
2023-12-24T02:53:17.183Z,3.53
2023-12-24T02:58:18.871Z,3.10
2023-12-24T03:03:20.564Z,3.33
2023-12-24T03:08:22.645Z,2.85
2023-12-24T03:13:24.311Z,2.50
2023-12-24T03:18:26.022Z,2.53
2023-12-24T03:23:28.150Z,2.55
2023-12-24T03:28:29.812Z,3.42
2023-12-24T03:33:31.528Z,3.75
2023-12-24T03:38:33.233Z,3.65
2023-12-24T03:43:35.034Z,2.03
2023-12-24T03:48:38.332Z,2.33
2023-12-24T03:53:40.081Z,4.20
2023-12-24T03:58:41.735Z,2.10
2023-12-24T04:03:43.475Z,3.78
2023-12-24T04:08:45.353Z,2.97
2023-12-24T04:13:47.067Z,2.83
2023-12-24T04:18:48.771Z,3.50
2023-12-24T04:23:50.417Z,3.35
2023-12-24T04:28:53.648Z,2.35
2023-12-24T04:33:55.273Z,2.85
2023-12-24T04:38:56.951Z,3.47
2023-12-24T04:43:58.651Z,2.50
2023-12-24T04:49:00.344Z,1.92
2023-12-24T04:54:01.979Z,3.90
2023-12-24T04:59:03.679Z,1.90
2023-12-24T05:04:05.402Z,1.75
2023-12-24T05:09:07.077Z,1.20
2023-12-24T05:14:08.783Z,1.83
2023-12-24T05:19:10.482Z,0.93
2023-12-24T05:24:12.185Z,2.42
2023-12-24T05:29:14.129Z,1.38
2023-12-24T05:34:16.047Z,2.50
2023-12-24T05:39:17.728Z,1.92
2023-12-24T05:44:19.393Z,2.08
2023-12-24T05:49:21.273Z,7.00
2023-12-24T05:54:22.921Z,6.72
2023-12-24T05:59:24.593Z,2.20
2023-12-24T06:04:26.222Z,2.15
2023-12-24T06:09:28.054Z,2.53
2023-12-24T06:14:29.699Z,1.70
2023-12-24T06:19:31.652Z,2.83
2023-12-24T06:24:33.464Z,2.63
2023-12-24T06:29:38.140Z,4.72
2023-12-24T06:34:41.204Z,5.47
2023-12-24T06:39:42.975Z,3.60
2023-12-24T06:44:44.797Z,4.38
2023-12-24T06:49:46.568Z,2.22
2023-12-24T06:54:48.980Z,2.78
2023-12-24T06:59:50.753Z,2.75
2023-12-24T07:04:52.437Z,3.72
2023-12-24T07:09:54.145Z,6.82
2023-12-24T07:14:55.777Z,8.98
2023-12-24T07:19:57.445Z,16.38
2023-12-24T07:24:59.066Z,15.52
2023-12-24T07:30:00.709Z,10.40
2023-12-24T07:35:02.880Z,3.92
2023-12-24T07:40:05.005Z,4.75
2023-12-24T07:45:07.234Z,3.67
2023-12-24T07:50:09.144Z,4.00
2023-12-24T07:55:10.781Z,3.72
2023-12-24T08:00:13.494Z,3.15
2023-12-24T08:05:15.342Z,4.72
2023-12-24T08:10:17.015Z,6.85
2023-12-24T08:15:22.730Z,3.25
2023-12-24T08:20:24.503Z,4.55
2023-12-24T08:25:26.225Z,3.88
2023-12-24T08:30:27.912Z,2.95
2023-12-24T08:35:29.540Z,5.65
2023-12-24T08:40:31.164Z,4.10
2023-12-24T08:45:32.823Z,6.15
2023-12-24T08:50:34.521Z,7.32
2023-12-24T08:55:36.232Z,6.95
2023-12-24T09:00:37.926Z,5.53
2023-12-24T09:05:39.594Z,6.80
2023-12-24T09:10:42.591Z,7.10
2023-12-24T09:15:44.235Z,6.50
2023-12-24T09:20:45.880Z,7.07
2023-12-24T09:25:47.613Z,5.00
2023-12-24T09:30:50.302Z,7.50
2023-12-24T09:35:51.968Z,7.10
2023-12-24T09:40:53.645Z,6.25
2023-12-24T09:45:55.395Z,10.35
2023-12-24T09:50:57.041Z,17.67
2023-12-24T09:55:59.869Z,16.50
2023-12-24T10:01:01.528Z,22.38
2023-12-24T10:06:08.967Z,14.57
2023-12-24T10:11:16.672Z,11.18
2023-12-24T10:16:18.739Z,10.00
2023-12-24T10:21:20.499Z,12.05
2023-12-24T10:26:22.350Z,13.80
2023-12-24T10:31:25.149Z,13.85
2023-12-24T10:36:26.758Z,14.38
2023-12-24T10:41:28.365Z,16.35
2023-12-24T10:46:29.975Z,14.65
2023-12-24T10:51:31.617Z,17.42
2023-12-24T10:56:40.197Z,17.95
2023-12-24T11:01:41.922Z,19.80
2023-12-24T11:06:43.596Z,22.15
2023-12-24T11:11:58.693Z,19.58
2023-12-24T11:17:00.309Z,23.02
2023-12-24T11:22:08.855Z,25.77
2023-12-24T11:27:11.024Z,22.53
2023-12-24T11:32:28.327Z,23.75
2023-12-24T11:37:31.858Z,26.95
2023-12-24T11:43:02.811Z,26.17
2023-12-24T11:48:05.527Z,18.23
2023-12-24T11:53:09.781Z,14.02
2023-12-24T11:58:11.654Z,11.00
2023-12-24T12:03:19.432Z,14.27
2023-12-24T12:08:21.122Z,15.68
2023-12-24T12:13:23.064Z,9.23
2023-12-24T12:18:24.688Z,10.88
2023-12-24T12:23:26.675Z,7.40
2023-12-24T12:28:28.330Z,9.77
2023-12-24T12:33:30.368Z,6.65
2023-12-24T12:38:32.033Z,9.43
2023-12-24T12:43:34.278Z,9.27
2023-12-24T12:48:36.062Z,6.05
2023-12-24T12:53:38.120Z,8.55
2023-12-24T12:58:39.744Z,9.43
2023-12-24T13:03:58.507Z,6.68
2023-12-24T13:09:10.855Z,13.40
2023-12-24T13:14:12.608Z,10.05
2023-12-24T13:19:18.782Z,11.60
2023-12-24T13:24:21.004Z,8.68
2023-12-24T13:29:22.716Z,13.25
2023-12-24T13:34:24.416Z,10.95
2023-12-24T13:39:26.054Z,13.38
2023-12-24T13:44:27.657Z,11.35
2023-12-24T13:49:30.040Z,9.50
2023-12-24T13:54:31.711Z,9.82
2023-12-24T13:59:33.331Z,11.20
2023-12-24T14:04:34.987Z,7.15
2023-12-24T14:09:36.634Z,10.27
2023-12-24T14:14:38.315Z,9.40
2023-12-24T14:19:40.006Z,7.32
2023-12-24T14:24:41.645Z,6.75
2023-12-24T14:29:43.477Z,4.35
2023-12-24T14:34:45.185Z,6.97
2023-12-24T14:39:46.910Z,4.47
2023-12-24T14:44:50.359Z,3.60
2023-12-24T14:49:52.585Z,3.03
2023-12-24T14:54:58.079Z,3.63
2023-12-24T15:00:00.184Z,5.38
2023-12-24T15:05:02.332Z,4.50
2023-12-24T15:10:04.661Z,4.55
2023-12-24T15:15:07.185Z,4.82
2023-12-24T15:20:09.677Z,5.03
2023-12-24T15:25:14.008Z,6.05
2023-12-24T15:30:15.812Z,9.18
2023-12-24T15:35:17.503Z,4.63
2023-12-24T15:40:20.145Z,8.93
2023-12-24T15:45:21.758Z,7.05
2023-12-24T15:50:23.877Z,7.68
2023-12-24T15:55:25.662Z,5.75
2023-12-24T16:00:29.124Z,5.38
2023-12-24T16:05:31.262Z,3.42
2023-12-24T16:10:33.441Z,4.82
2023-12-24T16:15:37.111Z,4.85
2023-12-24T16:20:39.743Z,4.40
2023-12-24T16:25:41.448Z,5.95
2023-12-24T16:30:43.166Z,6.55
2023-12-24T16:35:45.271Z,5.35
2023-12-24T16:40:46.896Z,5.50
2023-12-24T16:45:48.518Z,5.18
2023-12-24T16:50:50.311Z,6.88
2023-12-24T16:55:51.994Z,7.35
2023-12-24T17:00:53.621Z,10.00
2023-12-24T17:05:55.367Z,9.57
2023-12-24T17:10:57.052Z,6.32
2023-12-24T17:16:02.901Z,7.07
2023-12-24T17:21:04.821Z,7.05
2023-12-24T17:26:06.874Z,8.55
2023-12-24T17:31:11.391Z,6.93
2023-12-24T17:36:20.206Z,6.32
2023-12-24T17:41:22.173Z,7.28
2023-12-24T17:46:23.892Z,7.00
2023-12-24T17:51:25.819Z,4.47
2023-12-24T17:56:27.497Z,4.13
2023-12-24T18:01:29.209Z,3.83
2023-12-24T18:06:31.137Z,3.65
2023-12-24T18:11:34.411Z,6.00
2023-12-24T18:16:36.123Z,5.35
2023-12-24T18:21:40.844Z,5.20
2023-12-24T18:26:42.566Z,4.82
2023-12-24T18:31:44.352Z,4.20
2023-12-24T18:36:46.000Z,4.10
2023-12-24T18:41:47.652Z,5.25
2023-12-24T18:46:49.363Z,5.85
2023-12-24T18:51:50.981Z,5.82
2023-12-24T18:56:53.458Z,4.57
2023-12-24T19:01:55.125Z,4.03
2023-12-24T19:06:58.004Z,3.70
2023-12-24T19:11:59.656Z,5.45
2023-12-24T19:17:01.325Z,4.18
2023-12-24T19:22:04.924Z,2.72
2023-12-24T19:27:07.507Z,3.67
2023-12-24T19:32:09.367Z,4.20
2023-12-24T19:37:11.037Z,3.05
2023-12-24T19:42:12.674Z,4.15
2023-12-24T19:47:14.762Z,3.80
2023-12-24T19:52:28.528Z,3.33
2023-12-24T19:57:37.897Z,2.45
2023-12-24T20:02:43.935Z,2.08
2023-12-24T20:07:45.666Z,3.35
2023-12-24T20:12:47.350Z,2.85
2023-12-24T20:17:49.108Z,3.97
2023-12-24T20:22:51.056Z,3.90
2023-12-24T20:27:54.029Z,2.22
2023-12-24T20:32:55.886Z,5.57
2023-12-24T20:37:57.780Z,2.83
2023-12-24T20:43:00.633Z,2.20
2023-12-24T20:48:02.427Z,1.80
2023-12-24T20:53:04.161Z,1.55
2023-12-24T20:58:05.814Z,2.65
2023-12-24T21:03:07.713Z,1.58
2023-12-24T21:08:09.437Z,2.00
2023-12-24T21:13:11.067Z,1.63
2023-12-24T21:18:12.879Z,1.77
2023-12-24T21:23:14.694Z,1.92
2023-12-24T21:28:16.331Z,2.45
2023-12-24T21:33:18.195Z,1.45
2023-12-24T21:38:20.419Z,3.25
2023-12-24T21:43:22.254Z,1.58
2023-12-24T21:48:27.082Z,2.67
2023-12-24T21:53:28.925Z,1.70
2023-12-24T21:58:30.585Z,2.33
2023-12-24T22:03:32.839Z,2.80
2023-12-24T22:08:34.726Z,2.40
2023-12-24T22:13:40.059Z,1.88
2023-12-24T22:18:41.942Z,2.35
2023-12-24T22:23:43.758Z,3.33
2023-12-24T22:28:45.410Z,1.98
2023-12-24T22:33:47.122Z,2.65
2023-12-24T22:38:49.809Z,2.20
2023-12-24T22:43:52.289Z,4.25
2023-12-24T22:48:54.191Z,1.10
2023-12-24T22:53:55.957Z,3.08
2023-12-24T22:58:57.629Z,2.30
2023-12-24T23:03:59.761Z,1.80
2023-12-24T23:09:01.591Z,1.23
2023-12-24T23:14:03.492Z,4.07
2023-12-24T23:19:05.256Z,2.28
2023-12-24T23:24:09.244Z,2.67
2023-12-24T23:29:11.081Z,1.92
2023-12-24T23:34:12.894Z,2.17
2023-12-24T23:39:16.610Z,1.20
2023-12-24T23:44:18.295Z,0.98
2023-12-24T23:49:20.023Z,1.35
2023-12-24T23:54:21.700Z,1.27
2023-12-24T23:59:23.411Z,0.98
